Terminal Aerodrome Forecast
Issued by NWS

Home | Current Version | Previous Version | Graphics & Text | Print | Product List | Glossary On
Versions: 1 2 3 4 5 6 7 8 9 10 11 12 13 14
799
FTUS43 KBIS 192126 AAA
TAFJMS
TAF AMD
KJMS 192126Z 1921/2018 17015G24KT P6SM FEW090 FEW250
     FM200200 25008KT P6SM FEW090 SCT250
     FM200600 32007KT P6SM FEW100 SCT250=

USA.gov is the U.S. government's official web portal to all federal, state and local government web resources and services.